sensor_id;sensor_type;location;lat;lon;timestamp;P1;P2;P0
59546;PMS5003;45368;55.002;-1.592;2022-10-22T00:02:20;19;16;
59546;PMS5003;45368;55.002;-1.592;2022-10-22T00:04:48;19;17;
59546;PMS5003;45368;55.002;-1.592;2022-10-22T00:07:17;17;16;
59546;PMS5003;45368;55.002;-1.592;2022-10-22T00:09:45;19;16;
59546;PMS5003;45368;55.002;-1.592;2022-10-22T00:12:13;19;17;
59546;PMS5003;45368;55.002;-1.592;2022-10-22T00:14:40;19;18;
59546;PMS5003;45368;55.002;-1.592;2022-10-22T00:17:08;15;14;
59546;PMS5003;45368;55.002;-1.592;2022-10-22T00:19:35;19;18;
59546;PMS5003;45368;55.002;-1.592;2022-10-22T00:22:03;16;15;
59546;PMS5003;45368;55.002;-1.592;2022-10-22T00:24:31;22;20;
59546;PMS5003;45368;55.002;-1.592;2022-10-22T00:26:59;13;13;
59546;PMS5003;45368;55.002;-1.592;2022-10-22T00:29:26;13;13;
59546;PMS5003;45368;55.002;-1.592;2022-10-22T00:31:54;13;11;
59546;PMS5003;45368;55.002;-1.592;2022-10-22T00:34:22;16;15;
59546;PMS5003;45368;55.002;-1.592;2022-10-22T00:36:50;14;14;
59546;PMS5003;45368;55.002;-1.592;2022-10-22T00:39:18;16;14;
59546;PMS5003;45368;55.002;-1.592;2022-10-22T00:41:49;16;14;
59546;PMS5003;45368;55.002;-1.592;2022-10-22T00:45:24;17;16;
59546;PMS5003;45368;55.002;-1.592;2022-10-22T00:47:53;18;17;
59546;PMS5003;45368;55.002;-1.592;2022-10-22T00:50:26;15;15;
59546;PMS5003;45368;55.002;-1.592;2022-10-22T00:52:58;21;19;
59546;PMS5003;45368;55.002;-1.592;2022-10-22T00:55:27;22;17;
59546;PMS5003;45368;55.002;-1.592;2022-10-22T00:57:57;17;15;
59546;PMS5003;45368;55.002;-1.592;2022-10-22T01:00:27;19;18;
59546;PMS5003;45368;55.002;-1.592;2022-10-22T01:02:54;16;14;
59546;PMS5003;45368;55.002;-1.592;2022-10-22T01:05:25;16;15;
59546;PMS5003;45368;55.002;-1.592;2022-10-22T01:07:55;16;14;
59546;PMS5003;45368;55.002;-1.592;2022-10-22T01:10:25;16;15;
59546;PMS5003;45368;55.002;-1.592;2022-10-22T01:13:09;17;15;
59546;PMS5003;45368;55.002;-1.592;2022-10-22T01:15:48;13;12;
59546;PMS5003;45368;55.002;-1.592;2022-10-22T01:18:34;11;11;
59546;PMS5003;45368;55.002;-1.592;2022-10-22T01:21:12;15;12;
59546;PMS5003;45368;55.002;-1.592;2022-10-22T01:23:53;12;11;
59546;PMS5003;45368;55.002;-1.592;2022-10-22T01:26:37;13;13;
59546;PMS5003;45368;55.002;-1.592;2022-10-22T01:29:18;11;11;
59546;PMS5003;45368;55.002;-1.592;2022-10-22T01:31:52;15;15;
59546;PMS5003;45368;55.002;-1.592;2022-10-22T01:34:24;15;12;
59546;PMS5003;45368;55.002;-1.592;2022-10-22T01:36:53;17;16;
59546;PMS5003;45368;55.002;-1.592;2022-10-22T01:39:23;14;14;
59546;PMS5003;45368;55.002;-1.592;2022-10-22T01:41:53;16;15;
59546;PMS5003;45368;55.002;-1.592;2022-10-22T01:44:22;19;16;
59546;PMS5003;45368;55.002;-1.592;2022-10-22T01:46:52;17;15;
59546;PMS5003;45368;55.002;-1.592;2022-10-22T01:49:33;15;15;
59546;PMS5003;45368;55.002;-1.592;2022-10-22T01:52:14;21;18;
59546;PMS5003;45368;55.002;-1.592;2022-10-22T01:54:55;16;14;
59546;PMS5003;45368;55.002;-1.592;2022-10-22T01:57:35;16;14;
59546;PMS5003;45368;55.002;-1.592;2022-10-22T02:00:10;24;23;
59546;PMS5003;45368;55.002;-1.592;2022-10-22T02:02:40;16;15;
59546;PMS5003;45368;55.002;-1.592;2022-10-22T02:05:16;19;17;
59546;PMS5003;45368;55.002;-1.592;2022-10-22T02:07:49;15;14;
59546;PMS5003;45368;55.002;-1.592;2022-10-22T02:10:19;18;17;
59546;PMS5003;45368;55.002;-1.592;2022-10-22T02:12:48;18;16;
59546;PMS5003;45368;55.002;-1.592;2022-10-22T02:15:18;18;17;
59546;PMS5003;45368;55.002;-1.592;2022-10-22T02:17:49;18;17;
59546;PMS5003;45368;55.002;-1.592;2022-10-22T02:20:19;16;16;
59546;PMS5003;45368;55.002;-1.592;2022-10-22T02:22:51;21;17;
59546;PMS5003;45368;55.002;-1.592;2022-10-22T02:25:20;14;14;
59546;PMS5003;45368;55.002;-1.592;2022-10-22T02:27:50;16;15;
59546;PMS5003;45368;55.002;-1.592;2022-10-22T02:30:24;14;14;
59546;PMS5003;45368;55.002;-1.592;2022-10-22T02:32:53;22;19;
59546;PMS5003;45368;55.002;-1.592;2022-10-22T02:35:27;18;17;
59546;PMS5003;45368;55.002;-1.592;2022-10-22T02:37:56;20;18;
59546;PMS5003;45368;55.002;-1.592;2022-10-22T02:40:25;18;16;
59546;PMS5003;45368;55.002;-1.592;2022-10-22T02:42:54;17;15;
59546;PMS5003;45368;55.002;-1.592;2022-10-22T02:45:22;13;13;
59546;PMS5003;45368;55.002;-1.592;2022-10-22T02:47:49;21;18;
59546;PMS5003;45368;55.002;-1.592;2022-10-22T02:50:16;23;20;
59546;PMS5003;45368;55.002;-1.592;2022-10-22T02:52:43;19;17;
59546;PMS5003;45368;55.002;-1.592;2022-10-22T02:55:11;17;14;
59546;PMS5003;45368;55.002;-1.592;2022-10-22T02:57:38;17;16;
59546;PMS5003;45368;55.002;-1.592;2022-10-22T03:00:06;18;17;
59546;PMS5003;45368;55.002;-1.592;2022-10-22T03:02:35;17;15;
59546;PMS5003;45368;55.002;-1.592;2022-10-22T03:05:02;14;14;
59546;PMS5003;45368;55.002;-1.592;2022-10-22T03:07:31;14;13;
59546;PMS5003;45368;55.002;-1.592;2022-10-22T03:09:58;14;14;
59546;PMS5003;45368;55.002;-1.592;2022-10-22T03:12:26;14;14;
59546;PMS5003;45368;55.002;-1.592;2022-10-22T03:14:53;16;15;
59546;PMS5003;45368;55.002;-1.592;2022-10-22T03:17:20;17;15;
59546;PMS5003;45368;55.002;-1.592;2022-10-22T03:19:47;19;17;
59546;PMS5003;45368;55.002;-1.592;2022-10-22T03:22:16;16;15;
59546;PMS5003;45368;55.002;-1.592;2022-10-22T03:24:48;13;12;
59546;PMS5003;45368;55.002;-1.592;2022-10-22T03:27:19;16;14;
59546;PMS5003;45368;55.002;-1.592;2022-10-22T03:29:48;17;15;
59546;PMS5003;45368;55.002;-1.592;2022-10-22T03:32:16;12;11;
59546;PMS5003;45368;55.002;-1.592;2022-10-22T03:34:45;18;17;
59546;PMS5003;45368;55.002;-1.592;2022-10-22T03:37:12;18;17;
59546;PMS5003;45368;55.002;-1.592;2022-10-22T03:39:39;17;17;
59546;PMS5003;45368;55.002;-1.592;2022-10-22T03:42:07;16;15;
59546;PMS5003;45368;55.002;-1.592;2022-10-22T03:44:36;14;13;
59546;PMS5003;45368;55.002;-1.592;2022-10-22T03:47:05;20;18;
59546;PMS5003;45368;55.002;-1.592;2022-10-22T03:49:33;16;15;
59546;PMS5003;45368;55.002;-1.592;2022-10-22T03:52:04;17;17;
59546;PMS5003;45368;55.002;-1.592;2022-10-22T03:54:32;21;16;
59546;PMS5003;45368;55.002;-1.592;2022-10-22T03:56:59;19;17;
59546;PMS5003;45368;55.002;-1.592;2022-10-22T03:59:26;16;14;
59546;PMS5003;45368;55.002;-1.592;2022-10-22T04:01:53;13;13;
59546;PMS5003;45368;55.002;-1.592;2022-10-22T04:04:20;14;14;
59546;PMS5003;45368;55.002;-1.592;2022-10-22T04:06:47;16;14;
59546;PMS5003;45368;55.002;-1.592;2022-10-22T04:09:14;12;11;
59546;PMS5003;45368;55.002;-1.592;2022-10-22T04:11:42;12;12;
59546;PMS5003;45368;55.002;-1.592;2022-10-22T04:14:09;15;14;
59546;PMS5003;45368;55.002;-1.592;2022-10-22T04:16:37;13;13;
59546;PMS5003;45368;55.002;-1.592;2022-10-22T04:19:05;12;12;
59546;PMS5003;45368;55.002;-1.592;2022-10-22T04:21:33;14;14;
59546;PMS5003;45368;55.002;-1.592;2022-10-22T04:24:01;12;11;
59546;PMS5003;45368;55.002;-1.592;2022-10-22T04:26:28;13;11;
59546;PMS5003;45368;55.002;-1.592;2022-10-22T04:28:55;12;10;
59546;PMS5003;45368;55.002;-1.592;2022-10-22T04:31:22;11;11;
59546;PMS5003;45368;55.002;-1.592;2022-10-22T04:33:51;13;13;
59546;PMS5003;45368;55.002;-1.592;2022-10-22T04:36:19;11;11;
59546;PMS5003;45368;55.002;-1.592;2022-10-22T04:38:50;12;12;
59546;PMS5003;45368;55.002;-1.592;2022-10-22T04:41:20;12;10;
59546;PMS5003;45368;55.002;-1.592;2022-10-22T04:43:49;11;10;
59546;PMS5003;45368;55.002;-1.592;2022-10-22T04:46:16;9;8;
59546;PMS5003;45368;55.002;-1.592;2022-10-22T04:48:44;8;8;
59546;PMS5003;45368;55.002;-1.592;2022-10-22T04:51:13;11;10;
59546;PMS5003;45368;55.002;-1.592;2022-10-22T04:53:42;12;10;
59546;PMS5003;45368;55.002;-1.592;2022-10-22T04:56:10;11;10;
59546;PMS5003;45368;55.002;-1.592;2022-10-22T04:58:39;10;9;
59546;PMS5003;45368;55.002;-1.592;2022-10-22T05:01:08;9;8;
59546;PMS5003;45368;55.002;-1.592;2022-10-22T05:03:36;11;10;
59546;PMS5003;45368;55.002;-1.592;2022-10-22T05:06:04;10;9;
59546;PMS5003;45368;55.002;-1.592;2022-10-22T05:08:32;8;8;
59546;PMS5003;45368;55.002;-1.592;2022-10-22T05:10:59;9;8;
59546;PMS5003;45368;55.002;-1.592;2022-10-22T05:13:26;9;9;
59546;PMS5003;45368;55.002;-1.592;2022-10-22T05:15:54;8;8;
59546;PMS5003;45368;55.002;-1.592;2022-10-22T05:18:21;12;12;
59546;PMS5003;45368;55.002;-1.592;2022-10-22T05:20:48;9;9;
59546;PMS5003;45368;55.002;-1.592;2022-10-22T05:23:14;9;9;
59546;PMS5003;45368;55.002;-1.592;2022-10-22T05:25:41;11;10;
59546;PMS5003;45368;55.002;-1.592;2022-10-22T05:28:09;7;7;
59546;PMS5003;45368;55.002;-1.592;2022-10-22T05:30:36;12;11;
59546;PMS5003;45368;55.002;-1.592;2022-10-22T05:33:03;14;12;
59546;PMS5003;45368;55.002;-1.592;2022-10-22T05:35:29;9;9;
59546;PMS5003;45368;55.002;-1.592;2022-10-22T05:37:56;10;10;
59546;PMS5003;45368;55.002;-1.592;2022-10-22T05:40:24;10;10;
59546;PMS5003;45368;55.002;-1.592;2022-10-22T05:42:50;10;10;
59546;PMS5003;45368;55.002;-1.592;2022-10-22T05:45:18;11;11;
59546;PMS5003;45368;55.002;-1.592;2022-10-22T05:47:45;8;8;
59546;PMS5003;45368;55.002;-1.592;2022-10-22T05:50:12;11;11;
59546;PMS5003;45368;55.002;-1.592;2022-10-22T05:52:40;10;10;
59546;PMS5003;45368;55.002;-1.592;2022-10-22T05:55:08;10;9;
59546;PMS5003;45368;55.002;-1.592;2022-10-22T05:57:35;9;9;
59546;PMS5003;45368;55.002;-1.592;2022-10-22T06:00:02;10;10;
59546;PMS5003;45368;55.002;-1.592;2022-10-22T06:02:30;7;7;
59546;PMS5003;45368;55.002;-1.592;2022-10-22T06:04:56;10;10;
59546;PMS5003;45368;55.002;-1.592;2022-10-22T06:07:23;7;6;
59546;PMS5003;45368;55.002;-1.592;2022-10-22T06:09:51;7;6;
59546;PMS5003;45368;55.002;-1.592;2022-10-22T06:12:19;6;6;
59546;PMS5003;45368;55.002;-1.592;2022-10-22T06:14:46;8;6;
59546;PMS5003;45368;55.002;-1.592;2022-10-22T06:17:14;9;8;
59546;PMS5003;45368;55.002;-1.592;2022-10-22T06:19:42;9;9;
59546;PMS5003;45368;55.002;-1.592;2022-10-22T06:22:12;6;6;
59546;PMS5003;45368;55.002;-1.592;2022-10-22T06:24:40;4;4;
59546;PMS5003;45368;55.002;-1.592;2022-10-22T06:27:06;5;5;
59546;PMS5003;45368;55.002;-1.592;2022-10-22T06:29:33;6;4;
59546;PMS5003;45368;55.002;-1.592;2022-10-22T06:32:00;2;2;
59546;PMS5003;45368;55.002;-1.592;2022-10-22T06:34:28;3;3;
59546;PMS5003;45368;55.002;-1.592;2022-10-22T06:36:54;1;1;
59546;PMS5003;45368;55.002;-1.592;2022-10-22T06:39:21;2;2;
59546;PMS5003;45368;55.002;-1.592;2022-10-22T06:41:48;1;0;
59546;PMS5003;45368;55.002;-1.592;2022-10-22T06:44:15;3;1;
59546;PMS5003;45368;55.002;-1.592;2022-10-22T06:46:47;1;0;
59546;PMS5003;45368;55.002;-1.592;2022-10-22T06:49:14;0;0;
59546;PMS5003;45368;55.002;-1.592;2022-10-22T06:51:42;0;0;
59546;PMS5003;45368;55.002;-1.592;2022-10-22T06:54:10;0;0;
59546;PMS5003;45368;55.002;-1.592;2022-10-22T06:56:37;0;0;
59546;PMS5003;45368;55.002;-1.592;2022-10-22T06:59:05;0;0;
59546;PMS5003;45368;55.002;-1.592;2022-10-22T07:01:33;0;0;
59546;PMS5003;45368;55.002;-1.592;2022-10-22T07:04:02;0;0;
59546;PMS5003;45368;55.002;-1.592;2022-10-22T07:06:30;0;0;
59546;PMS5003;45368;55.002;-1.592;2022-10-22T07:08:58;0;0;
59546;PMS5003;45368;55.002;-1.592;2022-10-22T07:11:26;0;0;
59546;PMS5003;45368;55.002;-1.592;2022-10-22T07:13:55;0;0;
59546;PMS5003;45368;55.002;-1.592;2022-10-22T07:16:23;0;0;
59546;PMS5003;45368;55.002;-1.592;2022-10-22T07:18:51;2;1;
59546;PMS5003;45368;55.002;-1.592;2022-10-22T07:21:19;0;0;
59546;PMS5003;45368;55.002;-1.592;2022-10-22T07:23:47;0;0;
59546;PMS5003;45368;55.002;-1.592;2022-10-22T07:26:15;0;0;
59546;PMS5003;45368;55.002;-1.592;2022-10-22T07:28:43;0;0;
59546;PMS5003;45368;55.002;-1.592;2022-10-22T07:31:10;0;0;
59546;PMS5003;45368;55.002;-1.592;2022-10-22T07:33:38;0;0;
59546;PMS5003;45368;55.002;-1.592;2022-10-22T07:36:07;0;0;
59546;PMS5003;45368;55.002;-1.592;2022-10-22T07:38:35;0;0;
59546;PMS5003;45368;55.002;-1.592;2022-10-22T07:41:03;0;0;
59546;PMS5003;45368;55.002;-1.592;2022-10-22T07:43:30;0;0;
59546;PMS5003;45368;55.002;-1.592;2022-10-22T07:45:57;0;0;
59546;PMS5003;45368;55.002;-1.592;2022-10-22T07:48:25;0;0;
59546;PMS5003;45368;55.002;-1.592;2022-10-22T07:50:53;0;0;
59546;PMS5003;45368;55.002;-1.592;2022-10-22T07:53:20;0;0;
59546;PMS5003;45368;55.002;-1.592;2022-10-22T07:55:48;0;0;
59546;PMS5003;45368;55.002;-1.592;2022-10-22T07:58:16;0;0;
59546;PMS5003;45368;55.002;-1.592;2022-10-22T08:00:43;0;0;
59546;PMS5003;45368;55.002;-1.592;2022-10-22T08:03:11;1;0;
59546;PMS5003;45368;55.002;-1.592;2022-10-22T08:05:39;0;0;
59546;PMS5003;45368;55.002;-1.592;2022-10-22T08:08:07;0;0;
59546;PMS5003;45368;55.002;-1.592;2022-10-22T08:10:35;0;0;
59546;PMS5003;45368;55.002;-1.592;2022-10-22T08:13:02;0;0;
59546;PMS5003;45368;55.002;-1.592;2022-10-22T08:15:30;1;1;
59546;PMS5003;45368;55.002;-1.592;2022-10-22T08:17:57;0;0;
59546;PMS5003;45368;55.002;-1.592;2022-10-22T08:20:24;2;0;
59546;PMS5003;45368;55.002;-1.592;2022-10-22T08:22:52;0;0;
59546;PMS5003;45368;55.002;-1.592;2022-10-22T08:25:19;1;0;
59546;PMS5003;45368;55.002;-1.592;2022-10-22T08:27:45;0;0;
59546;PMS5003;45368;55.002;-1.592;2022-10-22T08:30:13;0;0;
59546;PMS5003;45368;55.002;-1.592;2022-10-22T08:32:41;0;0;
59546;PMS5003;45368;55.002;-1.592;2022-10-22T08:35:09;0;0;
59546;PMS5003;45368;55.002;-1.592;2022-10-22T08:37:36;0;0;
59546;PMS5003;45368;55.002;-1.592;2022-10-22T08:40:03;0;0;
59546;PMS5003;45368;55.002;-1.592;2022-10-22T08:42:36;0;0;
59546;PMS5003;45368;55.002;-1.592;2022-10-22T08:45:20;0;0;
59546;PMS5003;45368;55.002;-1.592;2022-10-22T08:47:56;0;0;
59546;PMS5003;45368;55.002;-1.592;2022-10-22T08:50:36;0;0;
59546;PMS5003;45368;55.002;-1.592;2022-10-22T08:53:07;0;0;
59546;PMS5003;45368;55.002;-1.592;2022-10-22T08:55:39;0;0;
59546;PMS5003;45368;55.002;-1.592;2022-10-22T08:58:10;1;0;
59546;PMS5003;45368;55.002;-1.592;2022-10-22T09:00:46;0;0;
59546;PMS5003;45368;55.002;-1.592;2022-10-22T09:03:24;0;0;
59546;PMS5003;45368;55.002;-1.592;2022-10-22T09:06:04;0;0;
59546;PMS5003;45368;55.002;-1.592;2022-10-22T09:08:37;0;0;
59546;PMS5003;45368;55.002;-1.592;2022-10-22T09:11:08;0;0;
59546;PMS5003;45368;55.002;-1.592;2022-10-22T09:13:52;0;0;
59546;PMS5003;45368;55.002;-1.592;2022-10-22T09:16:22;0;0;
59546;PMS5003;45368;55.002;-1.592;2022-10-22T09:19:02;0;0;
59546;PMS5003;45368;55.002;-1.592;2022-10-22T09:21:42;0;0;
59546;PMS5003;45368;55.002;-1.592;2022-10-22T09:24:21;0;0;
59546;PMS5003;45368;55.002;-1.592;2022-10-22T09:26:57;0;0;
59546;PMS5003;45368;55.002;-1.592;2022-10-22T09:29:28;0;0;
59546;PMS5003;45368;55.002;-1.592;2022-10-22T09:31:58;0;0;
59546;PMS5003;45368;55.002;-1.592;2022-10-22T09:34:27;0;0;
59546;PMS5003;45368;55.002;-1.592;2022-10-22T09:36:56;0;0;
59546;PMS5003;45368;55.002;-1.592;2022-10-22T09:39:25;0;0;
59546;PMS5003;45368;55.002;-1.592;2022-10-22T09:41:55;1;0;
59546;PMS5003;45368;55.002;-1.592;2022-10-22T09:44:22;0;0;
59546;PMS5003;45368;55.002;-1.592;2022-10-22T09:46:49;0;0;
59546;PMS5003;45368;55.002;-1.592;2022-10-22T09:49:17;0;0;
59546;PMS5003;45368;55.002;-1.592;2022-10-22T09:51:49;0;0;
59546;PMS5003;45368;55.002;-1.592;2022-10-22T09:54:19;2;0;
59546;PMS5003;45368;55.002;-1.592;2022-10-22T09:56:52;1;0;
59546;PMS5003;45368;55.002;-1.592;2022-10-22T09:59:29;0;0;
59546;PMS5003;45368;55.002;-1.592;2022-10-22T10:01:59;2;0;
59546;PMS5003;45368;55.002;-1.592;2022-10-22T10:04:33;2;0;
59546;PMS5003;45368;55.002;-1.592;2022-10-22T10:07:00;0;0;
59546;PMS5003;45368;55.002;-1.592;2022-10-22T10:09:28;3;1;
59546;PMS5003;45368;55.002;-1.592;2022-10-22T10:12:03;1;0;
59546;PMS5003;45368;55.002;-1.592;2022-10-22T10:14:43;1;0;
59546;PMS5003;45368;55.002;-1.592;2022-10-22T10:17:21;0;0;
59546;PMS5003;45368;55.002;-1.592;2022-10-22T10:19:59;1;0;
59546;PMS5003;45368;55.002;-1.592;2022-10-22T10:22:42;0;0;
59546;PMS5003;45368;55.002;-1.592;2022-10-22T10:25:23;3;1;
59546;PMS5003;45368;55.002;-1.592;2022-10-22T10:28:05;4;3;
59546;PMS5003;45368;55.002;-1.592;2022-10-22T10:30:45;3;2;
59546;PMS5003;45368;55.002;-1.592;2022-10-22T10:33:23;2;2;
59546;PMS5003;45368;55.002;-1.592;2022-10-22T10:36:02;3;1;
59546;PMS5003;45368;55.002;-1.592;2022-10-22T10:38:37;3;1;
59546;PMS5003;45368;55.002;-1.592;2022-10-22T10:41:15;7;5;
59546;PMS5003;45368;55.002;-1.592;2022-10-22T10:43:56;4;2;
59546;PMS5003;45368;55.002;-1.592;2022-10-22T10:46:38;1;1;
59546;PMS5003;45368;55.002;-1.592;2022-10-22T10:49:16;7;4;
59546;PMS5003;45368;55.002;-1.592;2022-10-22T10:51:48;2;2;
59546;PMS5003;45368;55.002;-1.592;2022-10-22T10:54:26;1;1;
59546;PMS5003;45368;55.002;-1.592;2022-10-22T10:57:02;1;0;
59546;PMS5003;45368;55.002;-1.592;2022-10-22T10:59:38;5;3;
59546;PMS5003;45368;55.002;-1.592;2022-10-22T11:02:17;3;2;
59546;PMS5003;45368;55.002;-1.592;2022-10-22T11:06:01;4;2;
59546;PMS5003;45368;55.002;-1.592;2022-10-22T11:08:33;1;1;
59546;PMS5003;45368;55.002;-1.592;2022-10-22T11:11:04;1;1;
59546;PMS5003;45368;55.002;-1.592;2022-10-22T11:13:38;3;1;
59546;PMS5003;45368;55.002;-1.592;2022-10-22T11:16:10;4;2;
59546;PMS5003;45368;55.002;-1.592;2022-10-22T11:18:45;0;0;
59546;PMS5003;45368;55.002;-1.592;2022-10-22T11:21:18;1;1;
59546;PMS5003;45368;55.002;-1.592;2022-10-22T11:23:53;0;0;
59546;PMS5003;45368;55.002;-1.592;2022-10-22T11:26:32;2;2;
59546;PMS5003;45368;55.002;-1.592;2022-10-22T11:29:09;2;1;
59546;PMS5003;45368;55.002;-1.592;2022-10-22T11:31:39;4;1;
59546;PMS5003;45368;55.002;-1.592;2022-10-22T11:34:11;2;2;
59546;PMS5003;45368;55.002;-1.592;2022-10-22T11:36:44;3;2;
59546;PMS5003;45368;55.002;-1.592;2022-10-22T11:39:32;2;1;
59546;PMS5003;45368;55.002;-1.592;2022-10-22T11:42:05;3;2;
59546;PMS5003;45368;55.002;-1.592;2022-10-22T11:44:45;2;1;
59546;PMS5003;45368;55.002;-1.592;2022-10-22T11:47:17;2;1;
59546;PMS5003;45368;55.002;-1.592;2022-10-22T11:49:54;3;2;
59546;PMS5003;45368;55.002;-1.592;2022-10-22T11:52:25;5;3;
59546;PMS5003;45368;55.002;-1.592;2022-10-22T11:55:10;3;2;
59546;PMS5003;45368;55.002;-1.592;2022-10-22T11:57:58;0;0;
59546;PMS5003;45368;55.002;-1.592;2022-10-22T12:00:32;1;0;
59546;PMS5003;45368;55.002;-1.592;2022-10-22T12:03:14;1;1;
59546;PMS5003;45368;55.002;-1.592;2022-10-22T12:05:43;4;0;
59546;PMS5003;45368;55.002;-1.592;2022-10-22T12:08:19;0;0;
59546;PMS5003;45368;55.002;-1.592;2022-10-22T12:10:54;3;1;
59546;PMS5003;45368;55.002;-1.592;2022-10-22T12:13:26;2;1;
59546;PMS5003;45368;55.002;-1.592;2022-10-22T12:15:57;3;1;
59546;PMS5003;45368;55.002;-1.592;2022-10-22T12:18:29;4;3;
59546;PMS5003;45368;55.002;-1.592;2022-10-22T12:21:04;2;1;
59546;PMS5003;45368;55.002;-1.592;2022-10-22T12:23:33;3;1;
59546;PMS5003;45368;55.002;-1.592;2022-10-22T12:26:02;2;1;
59546;PMS5003;45368;55.002;-1.592;2022-10-22T12:28:36;2;1;
59546;PMS5003;45368;55.002;-1.592;2022-10-22T12:31:05;1;1;
59546;PMS5003;45368;55.002;-1.592;2022-10-22T12:33:40;3;1;
59546;PMS5003;45368;55.002;-1.592;2022-10-22T12:36:12;3;0;
59546;PMS5003;45368;55.002;-1.592;2022-10-22T12:38:41;0;0;
59546;PMS5003;45368;55.002;-1.592;2022-10-22T12:41:12;0;0;
59546;PMS5003;45368;55.002;-1.592;2022-10-22T12:43:40;4;1;
59546;PMS5003;45368;55.002;-1.592;2022-10-22T12:46:09;1;1;
59546;PMS5003;45368;55.002;-1.592;2022-10-22T12:48:39;3;2;
59546;PMS5003;45368;55.002;-1.592;2022-10-22T12:51:08;1;0;
59546;PMS5003;45368;55.002;-1.592;2022-10-22T12:53:42;1;1;
59546;PMS5003;45368;55.002;-1.592;2022-10-22T12:56:13;4;1;
59546;PMS5003;45368;55.002;-1.592;2022-10-22T12:58:45;0;0;
59546;PMS5003;45368;55.002;-1.592;2022-10-22T13:01:17;1;1;
59546;PMS5003;45368;55.002;-1.592;2022-10-22T13:03:46;1;1;
59546;PMS5003;45368;55.002;-1.592;2022-10-22T13:06:22;1;1;
59546;PMS5003;45368;55.002;-1.592;2022-10-22T13:08:55;2;1;
59546;PMS5003;45368;55.002;-1.592;2022-10-22T13:11:30;0;0;
59546;PMS5003;45368;55.002;-1.592;2022-10-22T13:14:01;1;1;
59546;PMS5003;45368;55.002;-1.592;2022-10-22T13:16:29;2;1;
59546;PMS5003;45368;55.002;-1.592;2022-10-22T13:18:56;3;1;
59546;PMS5003;45368;55.002;-1.592;2022-10-22T13:21:26;1;1;
59546;PMS5003;45368;55.002;-1.592;2022-10-22T13:23:58;0;0;
59546;PMS5003;45368;55.002;-1.592;2022-10-22T13:26:30;0;0;
59546;PMS5003;45368;55.002;-1.592;2022-10-22T13:28:59;3;0;
59546;PMS5003;45368;55.002;-1.592;2022-10-22T13:31:28;3;0;
59546;PMS5003;45368;55.002;-1.592;2022-10-22T13:33:58;2;0;
59546;PMS5003;45368;55.002;-1.592;2022-10-22T13:36:27;0;0;
59546;PMS5003;45368;55.002;-1.592;2022-10-22T13:38:55;0;0;
59546;PMS5003;45368;55.002;-1.592;2022-10-22T13:41:22;2;0;
59546;PMS5003;45368;55.002;-1.592;2022-10-22T13:43:52;1;0;
59546;PMS5003;45368;55.002;-1.592;2022-10-22T13:46:21;0;0;
59546;PMS5003;45368;55.002;-1.592;2022-10-22T13:48:50;1;0;
59546;PMS5003;45368;55.002;-1.592;2022-10-22T13:51:20;1;1;
59546;PMS5003;45368;55.002;-1.592;2022-10-22T13:53:49;1;0;
59546;PMS5003;45368;55.002;-1.592;2022-10-22T13:56:18;0;0;
59546;PMS5003;45368;55.002;-1.592;2022-10-22T13:58:46;1;1;
59546;PMS5003;45368;55.002;-1.592;2022-10-22T14:01:17;0;0;
59546;PMS5003;45368;55.002;-1.592;2022-10-22T14:03:46;1;0;
59546;PMS5003;45368;55.002;-1.592;2022-10-22T14:06:15;0;0;
59546;PMS5003;45368;55.002;-1.592;2022-10-22T14:08:45;1;1;
59546;PMS5003;45368;55.002;-1.592;2022-10-22T14:11:14;0;0;
59546;PMS5003;45368;55.002;-1.592;2022-10-22T14:13:42;2;0;
59546;PMS5003;45368;55.002;-1.592;2022-10-22T14:16:14;1;0;
59546;PMS5003;45368;55.002;-1.592;2022-10-22T14:18:44;2;0;
59546;PMS5003;45368;55.002;-1.592;2022-10-22T14:21:13;0;0;
59546;PMS5003;45368;55.002;-1.592;2022-10-22T14:23:42;1;1;
59546;PMS5003;45368;55.002;-1.592;2022-10-22T14:26:13;0;0;
59546;PMS5003;45368;55.002;-1.592;2022-10-22T14:28:47;2;1;
59546;PMS5003;45368;55.002;-1.592;2022-10-22T14:31:15;0;0;
59546;PMS5003;45368;55.002;-1.592;2022-10-22T14:33:42;2;1;
59546;PMS5003;45368;55.002;-1.592;2022-10-22T14:36:11;0;0;
59546;PMS5003;45368;55.002;-1.592;2022-10-22T14:38:40;2;2;
59546;PMS5003;45368;55.002;-1.592;2022-10-22T14:41:12;0;0;
59546;PMS5003;45368;55.002;-1.592;2022-10-22T14:43:43;3;1;
59546;PMS5003;45368;55.002;-1.592;2022-10-22T14:46:12;2;1;
59546;PMS5003;45368;55.002;-1.592;2022-10-22T14:48:40;0;0;
59546;PMS5003;45368;55.002;-1.592;2022-10-22T14:51:10;0;0;
59546;PMS5003;45368;55.002;-1.592;2022-10-22T14:53:38;4;1;
59546;PMS5003;45368;55.002;-1.592;2022-10-22T14:56:07;0;0;
59546;PMS5003;45368;55.002;-1.592;2022-10-22T14:58:36;2;2;
59546;PMS5003;45368;55.002;-1.592;2022-10-22T15:01:04;1;1;
59546;PMS5003;45368;55.002;-1.592;2022-10-22T15:03:32;0;0;
59546;PMS5003;45368;55.002;-1.592;2022-10-22T15:06:05;1;0;
59546;PMS5003;45368;55.002;-1.592;2022-10-22T15:08:33;1;1;
59546;PMS5003;45368;55.002;-1.592;2022-10-22T15:11:01;0;0;
59546;PMS5003;45368;55.002;-1.592;2022-10-22T15:13:30;0;0;
59546;PMS5003;45368;55.002;-1.592;2022-10-22T15:15:58;1;0;
59546;PMS5003;45368;55.002;-1.592;2022-10-22T15:18:27;0;0;
59546;PMS5003;45368;55.002;-1.592;2022-10-22T15:20:55;1;0;
59546;PMS5003;45368;55.002;-1.592;2022-10-22T15:23:24;1;0;
59546;PMS5003;45368;55.002;-1.592;2022-10-22T15:25:51;0;0;
59546;PMS5003;45368;55.002;-1.592;2022-10-22T15:28:19;1;1;
59546;PMS5003;45368;55.002;-1.592;2022-10-22T15:30:50;0;0;
59546;PMS5003;45368;55.002;-1.592;2022-10-22T15:33:19;0;0;
59546;PMS5003;45368;55.002;-1.592;2022-10-22T15:35:46;2;1;
59546;PMS5003;45368;55.002;-1.592;2022-10-22T15:38:14;2;0;
59546;PMS5003;45368;55.002;-1.592;2022-10-22T15:40:41;3;0;
59546;PMS5003;45368;55.002;-1.592;2022-10-22T15:43:10;1;1;
59546;PMS5003;45368;55.002;-1.592;2022-10-22T15:45:38;0;0;
59546;PMS5003;45368;55.002;-1.592;2022-10-22T15:48:05;1;1;
59546;PMS5003;45368;55.002;-1.592;2022-10-22T15:50:36;3;1;
59546;PMS5003;45368;55.002;-1.592;2022-10-22T15:53:03;0;0;
59546;PMS5003;45368;55.002;-1.592;2022-10-22T15:55:31;4;1;
59546;PMS5003;45368;55.002;-1.592;2022-10-22T15:57:58;1;1;
59546;PMS5003;45368;55.002;-1.592;2022-10-22T16:00:25;2;0;
59546;PMS5003;45368;55.002;-1.592;2022-10-22T16:02:53;1;0;
59546;PMS5003;45368;55.002;-1.592;2022-10-22T16:05:26;1;0;
59546;PMS5003;45368;55.002;-1.592;2022-10-22T16:07:53;2;2;
59546;PMS5003;45368;55.002;-1.592;2022-10-22T16:10:22;1;1;
59546;PMS5003;45368;55.002;-1.592;2022-10-22T16:12:50;1;1;
59546;PMS5003;45368;55.002;-1.592;2022-10-22T16:15:16;3;2;
59546;PMS5003;45368;55.002;-1.592;2022-10-22T16:17:43;2;2;
59546;PMS5003;45368;55.002;-1.592;2022-10-22T16:20:10;0;0;
59546;PMS5003;45368;55.002;-1.592;2022-10-22T16:22:38;2;2;
59546;PMS5003;45368;55.002;-1.592;2022-10-22T16:25:05;1;0;
59546;PMS5003;45368;55.002;-1.592;2022-10-22T16:27:33;1;1;
59546;PMS5003;45368;55.002;-1.592;2022-10-22T16:30:01;1;0;
59546;PMS5003;45368;55.002;-1.592;2022-10-22T16:32:28;0;0;
59546;PMS5003;45368;55.002;-1.592;2022-10-22T16:34:56;0;0;
59546;PMS5003;45368;55.002;-1.592;2022-10-22T16:37:23;2;2;
59546;PMS5003;45368;55.002;-1.592;2022-10-22T16:39:50;1;1;
59546;PMS5003;45368;55.002;-1.592;2022-10-22T16:42:17;2;1;
59546;PMS5003;45368;55.002;-1.592;2022-10-22T16:44:44;2;1;
59546;PMS5003;45368;55.002;-1.592;2022-10-22T16:47:12;4;3;